Asuncion Guarany, Paraguay

6:12 AM PYT on October 01, 2014 (GMT -0400)
Guarani International | Change Station
CLOSE
Current Station
Airport
Location: Ciudad del Este,
Elevation: 849 m
Nearby Weather Stations

Elev 849 m 25.46 °S, 54.84 °W | Updated 1 hour ago

Overcast
Overcast
20 °C
Feels Like 20 °C
N
11
Wind Variable Wind from SW

Today
High -- | Low -- °C
--% Chance of Precip.
Yesterday
High -- | Low -- °C
Precip. -- mm
5:19 AM 5:39 PM
Waxing Crescent, 46% visible
Pressure 1012 hPa
Visibility 10.0 kilometers
Clouds Mostly Cloudy 822 m
Overcast 2133 m
Dew Point 19 °C
Humidity 94%
Rainfall 0.0 mm
Snow Depth Not available.
UV 0 out of 12
Pollen Not available.
Air Quality Not available.
Flu Activity Not available.
METAR SGES 010900Z 23006KT 9999 BKN027 OVC070 20/19 Q1012

More Conditions Fewer Conditions

Pressure 1012 hPa
Visibility 10.0 kilometers
Clouds Mostly Cloudy 822 m
Overcast 2133 m
Dew Point 19 °C
Humidity 94%
Rainfall 0.0 mm
Snow Depth Not available.
UV 0 out of 12
Pollen Not available.
Air Quality Not available.
Flu Activity Not available.
METAR SGES 010900Z 23006KT 9999 BKN027 OVC070 20/19 Q1012

More Conditions Fewer Conditions

10-Day Weather Forecast

Almanac

Astronomy

Oct. 01, 2014 Rise Set
Actual Time 5:19 AM PYT 5:39 PM PYT
Civil Twilight 4:56 AM PYT 6:02 PM PYT
Nautical Twilight 4:29 AM PYT 6:29 PM PYT
Astronomical Twilight 4:02 AM PYT 6:56 PM PYT
Moon 10:47 AM PYT No Moon Set
Length of Visible Light 13h 05m
Length of Day
12h 19m
Tomorrow will be 1m 29s longer.
Waxing Crescent, 46% of the Moon is Illuminated
Today
Waxing Crescent
Oct 1
First Quarter
Oct 8
Full
Oct 15
Last Quarter
Oct 23
New

Yesterday's Extremes

Country Highs Country Lows

Community

WunderPhotos

Upload Photos

1,757,905 photos uploaded!

WunderBlogs® & News

Nearby

Snow Depth

Not available.

Earthquake Activity

City Distance Mag. Time & Date
No recent earthquake activity has been reported nearby.
Minimum magnitude displayed is 2.5.

Coastal Water Temperatures

Place Temperature
No Stations Reporting

Nearby Weather Stations